createdAt,value
2022-09-09T00:00:36.258Z,14.97
2022-09-09T00:01:36.252Z,14.88
2022-09-09T00:02:36.354Z,14.91
2022-09-09T00:03:36.310Z,14.88
2022-09-09T00:04:36.241Z,14.84
2022-09-09T00:05:36.267Z,14.89
2022-09-09T00:06:36.232Z,14.78
2022-09-09T00:07:36.224Z,14.73
2022-09-09T00:08:36.305Z,14.78
2022-09-09T00:09:36.218Z,14.78
2022-09-09T00:10:36.212Z,14.78
2022-09-09T00:11:36.206Z,14.78
2022-09-09T00:12:36.201Z,14.79
2022-09-09T00:13:36.203Z,14.69
2022-09-09T00:14:36.192Z,14.66
2022-09-09T00:15:36.218Z,14.73
2022-09-09T00:16:36.179Z,14.70
2022-09-09T00:17:36.186Z,14.72
2022-09-09T00:18:36.323Z,14.79
2022-09-09T00:19:36.170Z,14.79
2022-09-09T00:20:36.161Z,14.65
2022-09-09T00:21:36.161Z,14.81
2022-09-09T00:22:36.154Z,14.81
2022-09-09T00:23:36.147Z,14.81
2022-09-09T00:24:36.173Z,14.79
2022-09-09T00:25:36.147Z,14.72
2022-09-09T00:26:36.133Z,14.73
2022-09-09T00:27:36.133Z,14.70
2022-09-09T00:28:36.267Z,14.65
2022-09-09T00:29:36.124Z,14.62
2022-09-09T00:30:36.174Z,14.59
2022-09-09T00:31:36.116Z,14.55
2022-09-09T00:32:36.106Z,14.59
2022-09-09T00:33:36.103Z,14.58
2022-09-09T00:34:36.098Z,14.65
2022-09-09T00:35:36.091Z,14.58
2022-09-09T00:36:36.089Z,14.63
2022-09-09T00:37:36.085Z,14.65
2022-09-09T00:38:36.289Z,14.63
2022-09-09T00:39:36.126Z,14.72
2022-09-09T00:40:36.065Z,14.77
2022-09-09T00:41:36.071Z,14.73
2022-09-09T00:42:36.059Z,14.73
2022-09-09T00:43:36.054Z,14.78
2022-09-09T00:44:36.050Z,14.79
2022-09-09T00:45:36.048Z,14.79
2022-09-09T00:46:36.087Z,14.72
2022-09-09T00:47:36.035Z,14.85
2022-09-09T00:48:36.188Z,14.72
2022-09-09T00:49:36.027Z,14.78
2022-09-09T00:50:36.021Z,14.77
2022-09-09T00:51:36.017Z,14.66
2022-09-09T00:52:36.022Z,14.66
2022-09-09T00:53:36.009Z,14.63
2022-09-09T00:54:36.000Z,14.59
2022-09-09T00:55:35.996Z,14.62
2022-09-09T00:56:35.996Z,14.59
2022-09-09T00:57:35.987Z,14.59
2022-09-09T00:58:36.148Z,14.63
2022-09-09T00:59:35.978Z,14.58
2022-09-09T01:00:35.973Z,14.50
2022-09-09T01:01:36.012Z,14.54
2022-09-09T01:02:36.038Z,14.54
2022-09-09T01:03:35.962Z,14.55
2022-09-09T01:04:35.948Z,14.58
2022-09-09T01:05:35.956Z,14.53
2022-09-09T01:06:35.939Z,14.50
2022-09-09T01:07:35.936Z,14.53
2022-09-09T01:08:36.010Z,14.59
2022-09-09T01:09:35.931Z,14.58
2022-09-09T01:10:35.923Z,14.59
2022-09-09T01:11:35.918Z,14.47
2022-09-09T01:12:35.914Z,14.47
2022-09-09T01:13:35.907Z,14.58
2022-09-09T01:14:35.902Z,14.55
2022-09-09T01:15:35.897Z,14.45
2022-09-09T01:16:35.952Z,14.47
2022-09-09T01:17:35.888Z,14.48
2022-09-09T01:18:35.960Z,14.48
2022-09-09T01:19:35.880Z,14.45
2022-09-09T01:20:35.881Z,14.45
2022-09-09T01:21:35.870Z,14.50
2022-09-09T01:22:35.865Z,14.43
2022-09-09T01:23:35.856Z,14.53
2022-09-09T01:24:35.854Z,14.45
2022-09-09T01:25:35.850Z,14.50
2022-09-09T01:26:35.850Z,14.48
2022-09-09T01:27:35.841Z,14.53
2022-09-09T01:28:35.983Z,14.40
2022-09-09T01:29:35.829Z,14.47
2022-09-09T01:30:35.977Z,14.47
2022-09-09T01:31:35.822Z,14.47
2022-09-09T01:32:35.812Z,14.48
2022-09-09T01:33:35.809Z,14.50
2022-09-09T01:34:35.803Z,14.43
2022-09-09T01:35:35.807Z,14.45
2022-09-09T01:36:35.798Z,14.41
2022-09-09T01:37:35.791Z,14.40
2022-09-09T01:38:35.939Z,14.41
2022-09-09T01:39:35.807Z,14.37
2022-09-09T01:40:35.771Z,14.37
2022-09-09T01:41:35.771Z,14.32
2022-09-09T01:42:35.760Z,14.37
2022-09-09T01:43:35.765Z,14.40
2022-09-09T01:44:35.755Z,14.36
2022-09-09T01:45:35.833Z,14.35
2022-09-09T01:46:35.746Z,14.41
2022-09-09T01:47:35.742Z,14.36
2022-09-09T01:48:35.836Z,14.41
2022-09-09T01:49:35.729Z,14.32
2022-09-09T01:50:35.723Z,14.22
2022-09-09T01:51:35.718Z,14.25
2022-09-09T01:52:35.714Z,14.35
2022-09-09T01:53:35.709Z,14.29
2022-09-09T01:54:35.711Z,14.30
2022-09-09T01:55:35.701Z,14.30
2022-09-09T01:56:35.699Z,14.29
2022-09-09T01:57:35.690Z,14.29
2022-09-09T01:58:35.802Z,14.26
2022-09-09T01:59:35.684Z,14.29
2022-09-09T02:00:35.678Z,14.28
2022-09-09T02:01:35.709Z,14.29
2022-09-09T02:02:35.723Z,14.18
2022-09-09T02:03:35.660Z,14.28
2022-09-09T02:04:35.658Z,14.29
2022-09-09T02:05:35.650Z,14.30
2022-09-09T02:06:35.642Z,14.26
2022-09-09T02:07:35.637Z,14.32
2022-09-09T02:08:35.739Z,14.20
2022-09-09T02:09:35.634Z,14.25
2022-09-09T02:10:35.624Z,14.30
2022-09-09T02:11:35.627Z,14.30
2022-09-09T02:12:35.615Z,14.29
2022-09-09T02:13:35.608Z,14.17
2022-09-09T02:14:35.603Z,14.20
2022-09-09T02:15:35.595Z,14.18
2022-09-09T02:16:35.652Z,14.23
2022-09-09T02:17:35.594Z,14.33
2022-09-09T02:18:35.775Z,14.32
2022-09-09T02:19:35.581Z,14.22
2022-09-09T02:20:35.577Z,14.26
2022-09-09T02:21:35.568Z,14.23
2022-09-09T02:22:35.562Z,14.23
2022-09-09T02:23:35.555Z,14.18
2022-09-09T02:24:35.553Z,14.17
2022-09-09T02:25:35.547Z,14.15
2022-09-09T02:26:35.547Z,14.15
2022-09-09T02:27:35.536Z,14.11
2022-09-09T02:28:35.760Z,14.14
2022-09-09T02:29:35.526Z,14.20
2022-09-09T02:30:35.600Z,14.11
2022-09-09T02:31:35.519Z,14.15
2022-09-09T02:32:35.512Z,14.07
2022-09-09T02:33:35.503Z,14.15
2022-09-09T02:34:35.510Z,14.08
2022-09-09T02:35:35.496Z,14.15
2022-09-09T02:36:35.492Z,14.12
2022-09-09T02:37:35.486Z,14.10
2022-09-09T02:38:35.661Z,14.10
2022-09-09T02:39:35.506Z,14.08
2022-09-09T02:40:35.468Z,14.14
2022-09-09T02:41:35.463Z,14.07
2022-09-09T02:42:35.460Z,14.08
2022-09-09T02:43:35.458Z,14.05
2022-09-09T02:44:35.453Z,14.15
2022-09-09T02:45:35.497Z,14.07
2022-09-09T02:46:35.441Z,14.05
2022-09-09T02:47:35.439Z,14.12
2022-09-09T02:48:35.534Z,14.12
2022-09-09T02:49:35.425Z,14.04
2022-09-09T02:50:36.131Z,14.10
2022-09-09T02:51:35.416Z,14.08
2022-09-09T02:52:35.411Z,13.97
2022-09-09T02:53:35.405Z,13.96
2022-09-09T02:54:35.401Z,13.95
2022-09-09T02:55:35.397Z,13.93
2022-09-09T02:56:35.386Z,14.04
2022-09-09T02:57:35.384Z,13.92
2022-09-09T02:58:35.482Z,13.93
2022-09-09T02:59:35.377Z,14.00
2022-09-09T03:00:35.369Z,13.99
2022-09-09T03:01:35.383Z,13.93
2022-09-09T03:02:35.373Z,13.92
2022-09-09T03:03:35.353Z,13.92
2022-09-09T03:04:35.348Z,13.87
2022-09-09T03:05:35.345Z,13.85
2022-09-09T03:06:35.336Z,13.79
2022-09-09T03:07:35.329Z,13.85
2022-09-09T03:08:35.466Z,13.77
2022-09-09T03:09:35.320Z,13.78
2022-09-09T03:10:35.323Z,13.90
2022-09-09T03:11:35.312Z,13.78
2022-09-09T03:12:35.311Z,13.74
2022-09-09T03:13:35.296Z,13.77
2022-09-09T03:14:35.295Z,13.75
2022-09-09T03:15:35.292Z,13.70
2022-09-09T03:16:35.428Z,13.78
2022-09-09T03:17:35.281Z,13.71
2022-09-09T03:18:35.404Z,13.81
2022-09-09T03:19:35.280Z,13.71
2022-09-09T03:20:35.267Z,13.77
2022-09-09T03:21:35.260Z,13.67
2022-09-09T03:22:35.254Z,13.72
2022-09-09T03:23:35.251Z,13.77
2022-09-09T03:24:35.243Z,13.68
2022-09-09T03:25:35.237Z,13.70
2022-09-09T03:26:35.233Z,13.65
2022-09-09T03:27:35.229Z,13.72
2022-09-09T03:28:35.517Z,13.72
2022-09-09T03:29:35.219Z,13.70
2022-09-09T03:30:35.210Z,13.63
2022-09-09T03:31:35.238Z,13.65
2022-09-09T03:32:35.202Z,13.59
2022-09-09T03:33:35.197Z,13.54
2022-09-09T03:34:35.192Z,13.59
2022-09-09T03:35:35.192Z,13.52
2022-09-09T03:36:35.179Z,13.56
2022-09-09T03:37:35.180Z,13.62
2022-09-09T03:38:35.268Z,13.63
2022-09-09T03:39:35.219Z,13.71
2022-09-09T03:40:35.155Z,13.65
2022-09-09T03:41:35.160Z,13.65
2022-09-09T03:42:35.147Z,13.68
2022-09-09T03:43:35.142Z,13.70
2022-09-09T03:44:35.139Z,13.70
2022-09-09T03:45:35.166Z,13.63
2022-09-09T03:46:35.127Z,13.56
2022-09-09T03:47:35.119Z,13.62
2022-09-09T03:48:35.271Z,13.63
2022-09-09T03:49:35.111Z,13.59
2022-09-09T03:50:35.109Z,13.68
2022-09-09T03:51:35.099Z,13.60
2022-09-09T03:52:35.102Z,13.63
2022-09-09T03:53:35.088Z,13.71
2022-09-09T03:54:35.078Z,13.60
2022-09-09T03:55:35.075Z,13.68
2022-09-09T03:56:35.074Z,13.70
2022-09-09T03:57:35.065Z,13.71
2022-09-09T03:58:35.062Z,13.67
2022-09-09T03:59:35.064Z,13.65
2022-09-09T04:00:35.071Z,13.71
2022-09-09T04:01:35.095Z,13.71
2022-09-09T04:02:35.130Z,13.60
2022-09-09T04:03:35.037Z,13.68
2022-09-09T04:04:35.030Z,13.67
2022-09-09T04:05:35.023Z,13.59
2022-09-09T04:06:35.023Z,13.63
2022-09-09T04:07:35.013Z,13.63
2022-09-09T04:08:35.194Z,13.63
2022-09-09T04:09:35.003Z,13.65
2022-09-09T04:10:35.003Z,13.63
2022-09-09T04:11:34.988Z,13.68
2022-09-09T04:12:34.986Z,13.60
2022-09-09T04:13:34.980Z,13.70
2022-09-09T04:14:34.981Z,13.65
2022-09-09T04:15:34.969Z,13.60
2022-09-09T04:16:35.061Z,13.65
2022-09-09T04:17:34.958Z,13.74
2022-09-09T04:18:35.024Z,13.65
2022-09-09T04:19:34.948Z,13.62
2022-09-09T04:20:34.945Z,13.59
2022-09-09T04:21:34.935Z,13.47
2022-09-09T04:22:34.932Z,13.52
2022-09-09T04:23:34.926Z,13.57
2022-09-09T04:24:34.921Z,13.54
2022-09-09T04:25:34.914Z,13.50
2022-09-09T04:26:34.911Z,13.50
2022-09-09T04:27:34.903Z,13.35
2022-09-09T04:28:34.975Z,13.42
2022-09-09T04:29:34.894Z,13.46
2022-09-09T04:30:34.892Z,13.41
2022-09-09T04:31:34.928Z,13.44
2022-09-09T04:32:34.882Z,13.39
2022-09-09T04:33:39.442Z,13.47
2022-09-09T04:34:34.864Z,13.41
2022-09-09T04:35:34.863Z,13.38
2022-09-09T04:36:34.853Z,13.39
2022-09-09T04:37:34.847Z,13.39
2022-09-09T04:38:34.847Z,13.49
2022-09-09T04:39:34.858Z,13.42
2022-09-09T04:40:34.837Z,13.41
2022-09-09T04:41:34.829Z,13.42
2022-09-09T04:42:34.824Z,13.42
2022-09-09T04:43:34.821Z,13.44
2022-09-09T04:44:34.809Z,13.46
2022-09-09T04:45:34.880Z,13.42
2022-09-09T04:46:34.813Z,13.44
2022-09-09T04:47:34.797Z,13.39
2022-09-09T04:48:34.840Z,13.47
2022-09-09T04:49:34.786Z,13.39
2022-09-09T04:50:34.784Z,13.42
2022-09-09T04:51:34.779Z,13.38
2022-09-09T04:52:34.763Z,13.39
2022-09-09T04:53:34.761Z,13.47
2022-09-09T04:54:34.755Z,13.42
2022-09-09T04:55:34.756Z,13.47
2022-09-09T04:56:34.743Z,13.47
2022-09-09T04:57:34.748Z,13.44
2022-09-09T04:58:34.804Z,13.53
2022-09-09T04:59:34.732Z,13.47
2022-09-09T05:00:34.826Z,13.62
2022-09-09T05:01:34.718Z,13.49
2022-09-09T05:02:34.772Z,13.56
2022-09-09T05:03:34.707Z,13.62
2022-09-09T05:04:34.702Z,13.63
2022-09-09T05:05:34.696Z,13.70
2022-09-09T05:06:34.689Z,13.79
2022-09-09T05:07:34.682Z,13.74
2022-09-09T05:08:34.751Z,13.78
2022-09-09T05:09:34.674Z,13.85
2022-09-09T05:10:34.669Z,13.89
2022-09-09T05:11:34.669Z,13.95
2022-09-09T05:12:34.657Z,14.03
2022-09-09T05:13:38.328Z,13.99
2022-09-09T05:14:34.646Z,14.07
2022-09-09T05:15:34.646Z,14.05
2022-09-09T05:16:34.719Z,14.15
2022-09-09T05:17:34.630Z,14.22
2022-09-09T05:18:34.681Z,14.23
2022-09-09T05:19:34.619Z,14.20
2022-09-09T05:20:34.624Z,14.20
2022-09-09T05:21:34.609Z,14.43
2022-09-09T05:22:34.608Z,14.43
2022-09-09T05:23:34.599Z,14.54
2022-09-09T05:24:34.597Z,14.55
2022-09-09T05:25:34.583Z,14.62
2022-09-09T05:26:34.583Z,14.66
2022-09-09T05:27:34.579Z,14.73
2022-09-09T05:28:34.680Z,14.82
2022-09-09T05:29:34.583Z,14.86
2022-09-09T05:30:34.565Z,14.89
2022-09-09T05:31:34.630Z,14.96
2022-09-09T05:32:34.553Z,14.99
2022-09-09T05:33:34.550Z,15.09
2022-09-09T05:34:34.543Z,15.18
2022-09-09T05:35:34.538Z,15.25
2022-09-09T05:36:34.635Z,15.62
2022-09-09T05:37:34.529Z,16.17
2022-09-09T05:38:34.615Z,16.66
2022-09-09T05:39:34.535Z,17.20
2022-09-09T05:40:34.516Z,17.79
2022-09-09T05:41:34.514Z,18.18
2022-09-09T05:42:34.505Z,18.47
2022-09-09T05:43:34.503Z,18.74
2022-09-09T05:44:34.499Z,18.88
2022-09-09T05:45:34.496Z,19.21
2022-09-09T05:46:34.547Z,19.33
2022-09-09T05:47:34.486Z,19.47
2022-09-09T05:48:34.535Z,19.62
2022-09-09T05:49:34.480Z,19.51
2022-09-09T05:50:34.473Z,19.62
2022-09-09T05:51:34.473Z,19.54
2022-09-09T05:52:34.469Z,19.52
2022-09-09T05:53:34.465Z,19.56
2022-09-09T05:54:34.462Z,19.39
2022-09-09T05:55:34.461Z,19.11
2022-09-09T05:56:34.455Z,18.89
2022-09-09T05:57:34.452Z,18.89
2022-09-09T05:58:34.480Z,18.90
2022-09-09T05:59:34.446Z,18.95
2022-09-09T06:00:34.443Z,18.81
2022-09-09T06:01:34.463Z,18.96
2022-09-09T06:02:34.570Z,19.16
2022-09-09T06:03:34.433Z,19.34
2022-09-09T06:04:34.431Z,19.55
2022-09-09T06:05:34.441Z,19.49
2022-09-09T06:06:34.424Z,19.54
2022-09-09T06:07:34.421Z,19.59
2022-09-09T06:08:34.445Z,19.70
2022-09-09T06:09:34.418Z,19.58
2022-09-09T06:10:34.416Z,19.41
2022-09-09T06:11:34.412Z,19.18
2022-09-09T06:12:34.405Z,18.92
2022-09-09T06:13:34.408Z,18.84
2022-09-09T06:14:34.403Z,18.75
2022-09-09T06:15:34.400Z,18.53
2022-09-09T06:16:34.484Z,18.37
2022-09-09T06:17:34.394Z,18.33
2022-09-09T06:18:34.415Z,18.34
2022-09-09T06:19:34.389Z,18.62
2022-09-09T06:20:34.383Z,19.08
2022-09-09T06:21:34.383Z,19.79
2022-09-09T06:22:34.375Z,20.28
2022-09-09T06:23:34.374Z,20.77
2022-09-09T06:24:34.373Z,20.96
2022-09-09T06:25:34.366Z,21.18
2022-09-09T06:26:34.378Z,21.57
2022-09-09T06:27:34.375Z,22.06
2022-09-09T06:28:41.578Z,22.50
2022-09-09T06:30:27.293Z,23.02
2022-09-09T06:31:30.005Z,23.20
2022-09-09T06:33:20.471Z,23.59
2022-09-09T06:34:20.455Z,23.86
2022-09-09T06:36:24.474Z,24.35
2022-09-09T06:37:24.469Z,24.61
2022-09-09T06:39:17.594Z,25.01
2022-09-09T06:40:17.633Z,25.29
2022-09-09T06:42:10.512Z,25.78
2022-09-09T06:43:10.504Z,25.75
2022-09-09T06:45:14.533Z,26.22
2022-09-09T06:46:14.564Z,26.36
2022-09-09T06:48:18.512Z,26.53
2022-09-09T06:49:18.506Z,26.63
2022-09-09T06:51:22.506Z,26.15
2022-09-09T06:52:22.499Z,25.63
2022-09-09T06:54:15.613Z,24.74
2022-09-09T06:55:15.600Z,24.28
2022-09-09T06:57:33.684Z,23.28
2022-09-09T06:58:08.703Z,22.83
2022-09-09T07:00:12.727Z,22.11
2022-09-09T07:01:12.750Z,21.92
2022-09-09T07:02:12.767Z,21.76
2022-09-09T07:03:12.714Z,22.25
2022-09-09T07:04:12.718Z,22.57
2022-09-09T07:05:12.729Z,22.84
2022-09-09T07:06:12.712Z,23.09
2022-09-09T07:07:12.712Z,23.62
2022-09-09T07:08:12.714Z,23.77
2022-09-09T07:09:12.712Z,23.87
2022-09-09T07:10:12.712Z,24.21
2022-09-09T07:11:12.725Z,24.40
2022-09-09T07:12:12.712Z,24.74
2022-09-09T07:13:12.718Z,25.23
2022-09-09T07:14:12.711Z,25.65
2022-09-09T07:15:12.709Z,26.10
2022-09-09T07:16:12.762Z,26.18
2022-09-09T07:17:12.708Z,26.03
2022-09-09T07:18:12.713Z,25.58
2022-09-09T07:19:12.723Z,24.89
2022-09-09T07:20:12.712Z,24.33
2022-09-09T07:21:12.712Z,23.68
2022-09-09T07:22:12.716Z,23.24
2022-09-09T07:23:12.716Z,22.83
2022-09-09T07:24:13.826Z,22.62
2022-09-09T07:25:12.714Z,22.28
2022-09-09T07:26:12.716Z,22.11
2022-09-09T07:27:12.717Z,21.95
2022-09-09T07:28:12.712Z,21.77
2022-09-09T07:29:15.196Z,21.67
2022-09-09T07:30:17.550Z,21.46
2022-09-09T07:31:12.753Z,21.48
2022-09-09T07:32:12.709Z,21.46
2022-09-09T07:33:12.716Z,21.24
2022-09-09T07:34:12.717Z,21.17
2022-09-09T07:35:12.714Z,21.07
2022-09-09T07:36:12.711Z,20.95
2022-09-09T07:37:12.719Z,20.65
2022-09-09T07:38:12.716Z,20.55
2022-09-09T07:39:12.718Z,20.56
2022-09-09T07:40:12.816Z,20.34
2022-09-09T07:41:12.721Z,20.24
2022-09-09T07:42:12.710Z,20.26
2022-09-09T07:43:17.109Z,20.21
2022-09-09T07:44:12.703Z,20.22
2022-09-09T07:45:12.701Z,20.25
2022-09-09T07:46:12.719Z,20.22
2022-09-09T07:47:12.707Z,20.34
2022-09-09T07:48:12.699Z,20.34
2022-09-09T07:49:12.704Z,20.28
2022-09-09T07:50:12.698Z,20.39
2022-09-09T07:51:12.704Z,20.37
2022-09-09T07:52:14.027Z,20.48
2022-09-09T07:53:12.697Z,20.52
2022-09-09T07:54:12.700Z,20.66
2022-09-09T07:55:12.692Z,20.67
2022-09-09T07:56:12.692Z,20.90
2022-09-09T07:57:12.687Z,20.99
2022-09-09T07:58:12.691Z,21.03
2022-09-09T07:59:12.688Z,21.07
2022-09-09T08:00:12.690Z,20.97
2022-09-09T08:01:12.687Z,21.00
2022-09-09T08:02:12.688Z,20.80
2022-09-09T08:03:12.707Z,20.80
2022-09-09T08:04:12.681Z,20.84
2022-09-09T08:05:12.682Z,20.85
2022-09-09T08:06:12.679Z,20.90
2022-09-09T08:07:12.677Z,20.99
2022-09-09T08:08:12.678Z,21.06
2022-09-09T08:09:12.677Z,21.15
2022-09-09T08:10:12.673Z,21.17
2022-09-09T08:11:12.675Z,21.07
2022-09-09T08:12:12.695Z,21.15
2022-09-09T08:13:18.266Z,21.17
2022-09-09T08:14:12.672Z,21.22
2022-09-09T08:15:12.668Z,21.18
2022-09-09T08:16:12.747Z,21.14
2022-09-09T08:17:12.668Z,21.09
2022-09-09T08:18:12.665Z,20.96
2022-09-09T08:19:12.667Z,20.81
2022-09-09T08:20:12.663Z,20.75
2022-09-09T08:21:12.663Z,20.55
2022-09-09T08:22:12.657Z,20.39
2022-09-09T08:23:12.666Z,20.34
2022-09-09T08:24:12.652Z,20.22
2022-09-09T08:25:12.656Z,20.18
2022-09-09T08:26:12.657Z,20.25
2022-09-09T08:27:12.654Z,20.31
2022-09-09T08:28:12.651Z,20.22
2022-09-09T08:29:12.677Z,20.21
2022-09-09T08:30:13.969Z,20.21
2022-09-09T08:31:12.711Z,20.09
2022-09-09T08:32:12.645Z,20.21
2022-09-09T08:33:12.647Z,20.16
2022-09-09T08:34:12.640Z,20.19
2022-09-09T08:35:12.643Z,20.16
2022-09-09T08:36:12.648Z,20.19
2022-09-09T08:37:12.640Z,20.14
2022-09-09T08:38:12.640Z,20.22
2022-09-09T08:39:12.636Z,20.25
2022-09-09T08:40:12.681Z,20.29
2022-09-09T08:41:12.632Z,20.25
2022-09-09T08:42:12.628Z,20.34
2022-09-09T08:43:12.628Z,20.36
2022-09-09T08:44:12.624Z,20.47
2022-09-09T08:45:12.629Z,20.55
2022-09-09T08:46:12.677Z,20.58
2022-09-09T08:47:12.622Z,20.52
2022-09-09T08:48:12.619Z,20.44
2022-09-09T08:49:12.620Z,20.52
2022-09-09T08:50:12.618Z,20.59
2022-09-09T08:51:12.623Z,20.48
2022-09-09T08:52:12.618Z,20.47
2022-09-09T08:53:12.623Z,20.50
2022-09-09T08:54:12.606Z,20.48
2022-09-09T08:55:12.609Z,20.56
2022-09-09T08:56:12.614Z,20.67
2022-09-09T08:57:12.605Z,20.69
2022-09-09T08:58:12.607Z,20.63
2022-09-09T08:59:12.602Z,20.67
2022-09-09T09:00:12.598Z,20.72
2022-09-09T09:01:12.661Z,20.74
2022-09-09T09:02:16.506Z,20.78
2022-09-09T09:03:12.616Z,20.80
2022-09-09T09:04:12.640Z,20.88
2022-09-09T09:05:12.593Z,20.92
2022-09-09T09:06:12.595Z,20.87
2022-09-09T09:07:12.590Z,20.95
2022-09-09T09:08:12.585Z,20.88
2022-09-09T09:09:12.589Z,20.97
2022-09-09T09:10:37.596Z,20.90
2022-09-09T09:11:12.585Z,20.81
2022-09-09T09:12:12.580Z,20.80
2022-09-09T09:13:12.586Z,20.90
2022-09-09T09:14:12.580Z,20.84
2022-09-09T09:15:12.578Z,20.95
2022-09-09T09:16:12.626Z,20.93
2022-09-09T09:17:12.574Z,20.99
2022-09-09T09:18:12.592Z,21.05
2022-09-09T09:19:12.571Z,21.06
2022-09-09T09:20:12.573Z,21.17
2022-09-09T09:21:12.574Z,21.21
2022-09-09T09:22:12.571Z,21.32
2022-09-09T09:23:12.567Z,21.45
2022-09-09T09:24:12.565Z,21.45
2022-09-09T09:25:12.563Z,21.45
2022-09-09T09:26:12.565Z,21.46
2022-09-09T09:27:12.563Z,21.54
2022-09-09T09:28:12.565Z,21.54
2022-09-09T09:29:12.561Z,21.58
2022-09-09T09:30:25.340Z,21.64
2022-09-09T09:31:12.650Z,21.67
2022-09-09T09:32:12.557Z,21.80
2022-09-09T09:33:12.554Z,21.95
2022-09-09T09:34:12.554Z,22.02
2022-09-09T09:35:12.554Z,22.00
2022-09-09T09:36:12.551Z,21.95
2022-09-09T09:37:12.553Z,22.02
2022-09-09T09:40:12.558Z,22.04
2022-09-09T09:41:12.557Z,22.10
2022-09-09T09:42:12.551Z,22.17
2022-09-09T09:43:12.545Z,22.28
2022-09-09T09:44:12.547Z,22.29
2022-09-09T09:45:12.543Z,22.25
2022-09-09T09:46:17.872Z,22.22
2022-09-09T09:47:12.542Z,22.26
2022-09-09T09:48:13.829Z,22.13
2022-09-09T09:49:12.543Z,22.13
2022-09-09T09:50:12.597Z,22.14
2022-09-09T09:51:12.542Z,22.07
2022-09-09T09:52:12.539Z,22.02
2022-09-09T09:53:12.540Z,22.02
2022-09-09T09:54:12.539Z,22.04
2022-09-09T09:55:12.537Z,21.91
2022-09-09T09:56:12.537Z,21.79
2022-09-09T09:57:12.538Z,21.82
2022-09-09T09:58:15.132Z,21.80
2022-09-09T09:59:18.005Z,21.79
2022-09-09T10:00:12.611Z,21.80
2022-09-09T10:01:12.553Z,21.82
2022-09-09T10:02:12.530Z,21.88
2022-09-09T10:03:12.531Z,21.88
2022-09-09T10:04:12.553Z,21.92
2022-09-09T10:05:12.529Z,21.89
2022-09-09T10:06:12.529Z,21.88
2022-09-09T10:07:12.526Z,21.92
2022-09-09T10:08:12.525Z,21.82
2022-09-09T10:09:12.527Z,21.88
2022-09-09T10:10:12.594Z,21.82
2022-09-09T10:11:12.530Z,21.70
2022-09-09T10:12:12.521Z,21.66
2022-09-09T10:13:12.526Z,21.69
2022-09-09T10:14:12.524Z,21.67
2022-09-09T10:15:12.519Z,21.75
2022-09-09T10:16:12.558Z,21.69
2022-09-09T10:17:12.521Z,21.77
2022-09-09T10:18:12.514Z,21.72
2022-09-09T10:19:12.516Z,21.66
2022-09-09T10:20:12.521Z,21.60
2022-09-09T10:21:12.515Z,21.55
2022-09-09T10:22:12.513Z,21.61
2022-09-09T10:23:12.511Z,21.62
2022-09-09T10:24:12.507Z,21.58
2022-09-09T10:25:12.509Z,21.67
2022-09-09T10:26:12.512Z,21.80
2022-09-09T10:27:12.507Z,21.89
2022-09-09T10:28:12.505Z,21.99
2022-09-09T10:29:12.523Z,21.96
2022-09-09T10:30:12.506Z,22.11
2022-09-09T10:31:12.548Z,22.17
2022-09-09T10:32:12.500Z,22.17
2022-09-09T10:33:12.509Z,22.26
2022-09-09T10:34:12.501Z,22.23
2022-09-09T10:35:12.500Z,22.28
2022-09-09T10:36:12.495Z,22.44
2022-09-09T10:37:12.495Z,22.45
2022-09-09T10:38:12.495Z,22.35
2022-09-09T10:39:12.499Z,22.33
2022-09-09T10:40:12.584Z,22.18
2022-09-09T10:41:12.496Z,22.18
2022-09-09T10:42:12.495Z,22.25
2022-09-09T10:43:12.493Z,22.20
2022-09-09T10:44:12.494Z,22.15
2022-09-09T10:45:12.492Z,22.32
2022-09-09T10:46:12.552Z,22.28
2022-09-09T10:47:12.490Z,22.35
2022-09-09T10:48:12.488Z,22.47
2022-09-09T10:49:12.488Z,22.57
2022-09-09T10:50:12.489Z,22.55
2022-09-09T10:51:12.488Z,22.65
2022-09-09T10:52:12.483Z,22.55
2022-09-09T10:53:12.488Z,22.55
2022-09-09T10:54:12.485Z,22.50
2022-09-09T10:55:12.490Z,22.55
2022-09-09T10:56:12.481Z,22.51
2022-09-09T10:57:12.482Z,22.47
2022-09-09T10:58:12.480Z,22.53
2022-09-09T10:59:12.481Z,22.54
2022-09-09T11:00:12.477Z,22.57
2022-09-09T11:01:12.548Z,22.65
2022-09-09T11:02:12.477Z,22.62
2022-09-09T11:03:12.481Z,22.63
2022-09-09T11:04:12.537Z,22.70
2022-09-09T11:05:12.476Z,22.60
2022-09-09T11:06:12.489Z,22.55
2022-09-09T11:07:12.490Z,22.51
2022-09-09T11:08:12.535Z,22.60
2022-09-09T11:09:12.487Z,22.70
2022-09-09T11:10:12.472Z,22.70
2022-09-09T11:11:12.472Z,22.72
2022-09-09T11:12:12.470Z,22.80
2022-09-09T11:13:12.470Z,22.78
2022-09-09T11:14:12.469Z,22.84
2022-09-09T11:15:12.470Z,22.84
2022-09-09T11:16:12.468Z,22.76
2022-09-09T11:17:12.467Z,22.68
2022-09-09T11:18:12.467Z,22.63
2022-09-09T11:19:12.469Z,22.73
2022-09-09T11:20:12.478Z,22.76
2022-09-09T11:21:12.463Z,22.84
2022-09-09T11:22:12.471Z,22.88
2022-09-09T11:23:12.491Z,23.05
2022-09-09T11:24:12.489Z,23.05
2022-09-09T11:25:12.480Z,23.09
2022-09-09T11:26:12.461Z,23.17
2022-09-09T11:27:12.461Z,23.23
2022-09-09T11:28:12.476Z,23.31
2022-09-09T11:29:12.545Z,23.32
2022-09-09T11:30:12.461Z,23.44
2022-09-09T11:31:12.489Z,23.46
2022-09-09T11:32:12.458Z,23.44
2022-09-09T11:33:12.456Z,23.56
2022-09-09T11:34:12.458Z,23.55
2022-09-09T11:35:12.460Z,23.46
2022-09-09T11:36:12.459Z,23.36
2022-09-09T11:37:12.457Z,23.25
2022-09-09T11:38:12.467Z,23.28
2022-09-09T11:39:12.458Z,23.31
2022-09-09T11:40:12.517Z,23.31
2022-09-09T11:41:12.466Z,23.24
2022-09-09T11:42:12.452Z,23.15
2022-09-09T11:43:12.454Z,23.24
2022-09-09T11:44:12.453Z,23.27
2022-09-09T11:45:12.449Z,23.23
2022-09-09T11:46:12.495Z,23.17
2022-09-09T11:47:12.452Z,23.05
2022-09-09T11:48:12.479Z,23.15
2022-09-09T11:49:12.456Z,23.21
2022-09-09T11:50:12.449Z,23.18
2022-09-09T11:51:16.887Z,23.27
2022-09-09T11:52:12.448Z,23.32
2022-09-09T11:53:12.448Z,23.48
2022-09-09T11:54:12.447Z,23.58
2022-09-09T11:55:12.447Z,23.61
2022-09-09T11:56:12.448Z,23.71
2022-09-09T11:57:12.448Z,23.81
2022-09-09T11:58:12.443Z,23.74
2022-09-09T11:59:12.451Z,23.91
2022-09-09T12:00:12.448Z,23.98
2022-09-09T12:01:12.446Z,24.02
2022-09-09T12:02:12.471Z,24.02
2022-09-09T12:03:12.445Z,24.11
2022-09-09T12:04:12.444Z,24.10
2022-09-09T12:05:12.485Z,24.10
2022-09-09T12:06:12.444Z,24.10
2022-09-09T12:07:12.442Z,24.10
2022-09-09T12:08:12.441Z,24.18
2022-09-09T12:09:12.451Z,24.10
2022-09-09T12:10:12.443Z,24.10
2022-09-09T12:11:12.445Z,24.14
2022-09-09T12:12:12.442Z,24.13
2022-09-09T12:13:12.443Z,24.16
2022-09-09T12:14:12.446Z,24.21
2022-09-09T12:15:12.443Z,24.26
2022-09-09T12:16:12.468Z,24.20
2022-09-09T12:17:12.442Z,24.14
2022-09-09T12:18:12.443Z,24.05
2022-09-09T12:19:12.445Z,24.01
2022-09-09T12:20:12.445Z,23.87
2022-09-09T12:21:12.440Z,23.81
2022-09-09T12:22:12.440Z,23.87
2022-09-09T12:23:12.443Z,23.84
2022-09-09T12:24:12.441Z,23.91
2022-09-09T12:25:12.442Z,23.88
2022-09-09T12:26:12.442Z,23.91
2022-09-09T12:27:12.448Z,23.80
2022-09-09T12:28:12.438Z,23.83
2022-09-09T12:29:19.618Z,23.99
2022-09-09T12:31:16.493Z,24.13
2022-09-09T12:32:16.433Z,24.16
2022-09-09T12:33:16.439Z,24.06
2022-09-09T12:34:16.437Z,24.17
2022-09-09T12:35:17.054Z,24.21
2022-09-09T12:36:16.433Z,24.32
2022-09-09T12:37:16.433Z,24.13
2022-09-09T12:38:16.429Z,24.30
2022-09-09T12:39:16.430Z,24.23
2022-09-09T12:40:16.489Z,24.16
2022-09-09T12:41:16.433Z,24.14
2022-09-09T12:42:16.430Z,24.02
2022-09-09T12:43:16.438Z,24.10
2022-09-09T12:44:16.440Z,24.16
2022-09-09T12:45:16.434Z,24.20
2022-09-09T12:46:16.478Z,24.43
2022-09-09T12:47:16.434Z,24.32
2022-09-09T12:48:16.453Z,24.38
2022-09-09T12:49:16.435Z,24.50
2022-09-09T12:50:16.435Z,24.58
2022-09-09T12:51:16.437Z,24.60
2022-09-09T12:52:16.458Z,24.68
2022-09-09T12:53:16.436Z,24.76
2022-09-09T12:54:16.434Z,24.85
2022-09-09T12:55:16.437Z,24.85
2022-09-09T12:56:16.436Z,24.86
2022-09-09T12:57:16.434Z,24.86
2022-09-09T12:58:16.440Z,24.86
2022-09-09T12:59:16.467Z,24.78
2022-09-09T13:00:16.806Z,24.69
2022-09-09T13:01:16.492Z,24.55
2022-09-09T13:02:16.559Z,24.55
2022-09-09T13:03:16.531Z,24.38
2022-09-09T13:04:16.438Z,24.45
2022-09-09T13:05:16.440Z,24.32
2022-09-09T13:06:16.442Z,24.17